createdAt,value
2022-09-15T00:01:24.924Z,16.50
2022-09-15T00:03:58.026Z,16.50
2022-09-15T00:06:30.728Z,16.42
2022-09-15T00:09:04.952Z,16.40
2022-09-15T00:11:39.823Z,16.40
2022-09-15T00:14:13.022Z,16.40
2022-09-15T00:16:45.740Z,16.40
2022-09-15T00:19:18.583Z,16.40
2022-09-15T00:21:51.573Z,16.30
2022-09-15T00:24:24.343Z,16.30
2022-09-15T00:26:57.348Z,16.30
2022-09-15T00:29:30.020Z,16.30
2022-09-15T00:32:02.908Z,16.30
2022-09-15T00:34:36.026Z,16.30
2022-09-15T00:37:09.185Z,16.30
2022-09-15T00:39:42.383Z,16.28
2022-09-15T00:42:18.948Z,16.30
2022-09-15T00:44:56.795Z,16.20
2022-09-15T00:47:41.203Z,16.20
2022-09-15T00:50:19.105Z,16.20
2022-09-15T00:52:58.108Z,16.20
2022-09-15T00:55:37.268Z,16.20
2022-09-15T00:58:13.331Z,16.20
2022-09-15T01:00:55.566Z,16.20
2022-09-15T01:03:31.420Z,16.20
2022-09-15T01:06:10.636Z,16.20
2022-09-15T01:08:49.258Z,16.22
2022-09-15T01:11:22.441Z,16.20
2022-09-15T01:13:55.217Z,16.20
2022-09-15T01:16:38.153Z,16.20
2022-09-15T01:19:37.545Z,16.20
2022-09-15T01:22:25.601Z,16.18
2022-09-15T01:25:11.126Z,16.16
2022-09-15T01:28:39.545Z,16.10
2022-09-15T01:31:20.780Z,16.10
2022-09-15T01:34:00.097Z,16.10
2022-09-15T01:36:44.321Z,16.10
2022-09-15T01:39:22.830Z,16.10
2022-09-15T01:42:00.349Z,16.10
2022-09-15T01:44:38.843Z,16.10
2022-09-15T01:47:17.260Z,16.10
2022-09-15T01:49:57.887Z,16.10
2022-09-15T01:52:31.581Z,16.10
2022-09-15T01:55:14.532Z,16.10
2022-09-15T01:57:47.232Z,16.10
2022-09-15T02:00:20.856Z,16.10
2022-09-15T02:02:59.863Z,16.02
2022-09-15T02:05:40.215Z,16.00
2022-09-15T02:08:23.373Z,16.00
2022-09-15T02:11:05.742Z,16.00
2022-09-15T02:13:48.915Z,16.00
2022-09-15T02:16:25.618Z,16.00
2022-09-15T02:19:13.274Z,16.00
2022-09-15T02:21:57.418Z,16.00
2022-09-15T02:24:38.090Z,16.00
2022-09-15T02:27:16.845Z,16.00
2022-09-15T02:29:51.240Z,16.00
2022-09-15T02:32:27.706Z,16.00
2022-09-15T02:35:05.089Z,16.00
2022-09-15T02:37:38.696Z,16.00
2022-09-15T02:40:13.053Z,15.94
2022-09-15T02:42:56.137Z,15.90
2022-09-15T02:45:30.681Z,15.90
2022-09-15T02:48:04.470Z,15.90
2022-09-15T02:50:37.725Z,15.90
2022-09-15T02:53:10.850Z,15.90
2022-09-15T02:55:43.527Z,15.90
2022-09-15T02:58:16.311Z,15.90
2022-09-15T03:00:49.032Z,15.88
2022-09-15T03:03:22.387Z,15.82
2022-09-15T03:05:55.268Z,15.80
2022-09-15T03:08:28.473Z,15.80
2022-09-15T03:11:02.893Z,15.70
2022-09-15T03:13:35.677Z,15.62
2022-09-15T03:16:14.842Z,15.50
2022-09-15T03:18:48.450Z,15.40
2022-09-15T03:21:22.922Z,15.30
2022-09-15T03:23:55.625Z,15.22
2022-09-15T03:26:28.488Z,15.14
2022-09-15T03:29:01.177Z,15.10
2022-09-15T03:31:34.108Z,15.00
2022-09-15T03:34:06.941Z,14.90
2022-09-15T03:36:40.028Z,14.90
2022-09-15T03:39:14.593Z,14.90
2022-09-15T03:41:47.434Z,14.90
2022-09-15T03:44:20.135Z,14.84
2022-09-15T03:46:53.307Z,14.80
2022-09-15T03:49:26.727Z,14.80
2022-09-15T03:51:59.694Z,14.80
2022-09-15T03:54:32.855Z,14.80
2022-09-15T03:57:05.867Z,14.80
2022-09-15T03:59:38.790Z,14.78
2022-09-15T04:02:11.599Z,14.70
2022-09-15T04:04:44.525Z,14.70
2022-09-15T04:07:17.376Z,14.70
2022-09-15T04:09:50.285Z,14.70
2022-09-15T04:12:23.124Z,14.70
2022-09-15T04:14:56.113Z,14.60
2022-09-15T04:17:28.896Z,14.60
2022-09-15T04:20:01.524Z,14.60
2022-09-15T04:22:36.264Z,14.60
2022-09-15T04:25:11.057Z,14.60
2022-09-15T04:27:43.980Z,14.50
2022-09-15T04:30:17.521Z,14.50
2022-09-15T04:32:51.989Z,14.50
2022-09-15T04:35:24.765Z,14.50
2022-09-15T04:37:58.598Z,14.50
2022-09-15T04:40:32.341Z,14.50
2022-09-15T04:43:06.803Z,14.50
2022-09-15T04:45:39.482Z,14.50
2022-09-15T04:48:12.262Z,14.50
2022-09-15T04:50:44.849Z,14.50
2022-09-15T04:53:18.010Z,14.50
2022-09-15T04:55:51.118Z,14.50
2022-09-15T04:58:23.897Z,14.44
2022-09-15T05:00:56.713Z,14.40
2022-09-15T05:03:29.465Z,14.42
2022-09-15T05:06:02.044Z,14.40
2022-09-15T05:08:34.723Z,14.40
2022-09-15T05:11:12.365Z,14.40
2022-09-15T05:13:45.818Z,14.40
2022-09-15T05:16:22.200Z,14.48
2022-09-15T05:18:57.252Z,14.50
2022-09-15T05:21:30.768Z,14.50
2022-09-15T05:24:03.831Z,14.52
2022-09-15T05:26:36.495Z,14.60
2022-09-15T05:29:09.398Z,14.60
2022-09-15T05:31:42.338Z,14.70
2022-09-15T05:34:15.654Z,14.70
2022-09-15T05:36:48.640Z,14.74
2022-09-15T05:39:21.487Z,14.80
2022-09-15T05:41:54.412Z,14.90
2022-09-15T05:44:27.501Z,14.90
2022-09-15T05:47:00.291Z,15.00
2022-09-15T05:49:34.188Z,15.08
2022-09-15T05:52:08.220Z,15.10
2022-09-15T05:54:40.936Z,15.20
2022-09-15T05:57:13.657Z,15.30
2022-09-15T05:59:46.442Z,15.38
2022-09-15T06:02:19.479Z,15.40
2022-09-15T06:04:52.418Z,15.40
2022-09-15T06:07:25.203Z,15.40
2022-09-15T06:09:57.992Z,15.48
2022-09-15T06:12:31.388Z,15.50
2022-09-15T06:15:04.584Z,15.70
2022-09-15T06:17:37.480Z,15.90
2022-09-15T06:20:12.307Z,16.10
2022-09-15T06:22:44.970Z,16.30
2022-09-15T06:25:17.853Z,16.30
2022-09-15T06:27:54.631Z,16.40
2022-09-15T06:30:27.614Z,16.42
2022-09-15T06:33:00.596Z,16.50
2022-09-15T06:35:33.485Z,16.40
2022-09-15T06:38:06.757Z,16.30
2022-09-15T06:40:39.479Z,16.20
2022-09-15T06:43:12.360Z,16.20
2022-09-15T06:45:45.163Z,16.30
2022-09-15T06:48:24.464Z,16.40
2022-09-15T06:50:59.619Z,16.50
2022-09-15T06:53:34.443Z,16.58
2022-09-15T06:56:10.317Z,16.50
2022-09-15T06:58:45.201Z,16.48
2022-09-15T07:01:26.767Z,16.50
2022-09-15T07:04:03.019Z,16.50
2022-09-15T07:06:37.390Z,16.70
2022-09-15T07:09:12.225Z,16.78
2022-09-15T07:11:45.146Z,16.80
2022-09-15T07:14:18.196Z,16.90
2022-09-15T07:16:51.037Z,16.92
2022-09-15T07:19:23.964Z,16.90
2022-09-15T07:21:56.756Z,17.00
2022-09-15T07:24:29.626Z,17.20
2022-09-15T07:27:02.513Z,17.30
2022-09-15T07:29:37.805Z,17.30
2022-09-15T07:32:10.735Z,17.38
2022-09-15T07:34:43.720Z,17.50
2022-09-15T07:37:16.611Z,17.70
2022-09-15T07:39:49.730Z,17.80
2022-09-15T07:42:22.503Z,17.98
2022-09-15T07:44:55.625Z,18.10
2022-09-15T07:47:28.352Z,18.20
2022-09-15T07:50:01.774Z,18.30
2022-09-15T07:52:37.495Z,18.40
2022-09-15T07:55:12.413Z,18.40
2022-09-15T07:57:45.162Z,18.46
2022-09-15T08:00:19.623Z,18.50
2022-09-15T08:02:52.528Z,18.60
2022-09-15T08:05:28.294Z,18.60
2022-09-15T08:08:02.777Z,18.50
2022-09-15T08:10:36.115Z,18.50
2022-09-15T08:13:09.116Z,18.76
2022-09-15T08:15:42.311Z,19.02
2022-09-15T08:18:15.466Z,19.40
2022-09-15T08:20:48.263Z,19.80
2022-09-15T08:23:21.433Z,20.20
2022-09-15T08:25:54.555Z,20.20
2022-09-15T08:28:27.505Z,19.94
2022-09-15T08:31:08.844Z,19.70
2022-09-15T08:33:45.446Z,19.90
2022-09-15T08:36:18.883Z,20.54
2022-09-15T08:38:51.768Z,21.16
2022-09-15T08:41:28.878Z,21.76
2022-09-15T08:44:12.351Z,22.28
2022-09-15T08:46:52.466Z,22.70
2022-09-15T08:49:50.154Z,22.48
2022-09-15T08:52:24.726Z,22.10
2022-09-15T08:55:02.569Z,21.70
2022-09-15T08:57:35.390Z,21.80
2022-09-15T09:00:14.918Z,22.14
2022-09-15T09:03:24.271Z,22.10
2022-09-15T09:06:03.486Z,22.52
2022-09-15T09:09:16.647Z,22.80
2022-09-15T09:12:14.709Z,22.30
2022-09-15T09:15:05.430Z,21.66
2022-09-15T09:17:59.847Z,21.22
2022-09-15T09:20:45.455Z,21.10
2022-09-15T09:23:23.634Z,21.40
2022-09-15T09:25:57.495Z,21.30
2022-09-15T09:28:38.062Z,21.04
2022-09-15T09:31:19.094Z,21.00
2022-09-15T09:33:57.613Z,21.08
2022-09-15T09:36:30.458Z,21.46
2022-09-15T09:39:05.830Z,22.10
2022-09-15T09:41:39.899Z,22.00
2022-09-15T09:44:16.786Z,21.80
2022-09-15T09:46:50.483Z,21.60
2022-09-15T09:49:26.842Z,21.60
2022-09-15T09:52:03.518Z,21.48
2022-09-15T09:54:37.756Z,21.50
2022-09-15T09:57:35.104Z,21.50
2022-09-15T10:00:35.047Z,21.96
2022-09-15T10:03:19.872Z,23.86
2022-09-15T10:06:08.537Z,25.12
2022-09-15T10:08:58.136Z,26.50
2022-09-15T10:11:47.944Z,27.48
2022-09-15T10:14:33.060Z,26.80
2022-09-15T10:17:10.519Z,25.86
2022-09-15T10:19:51.323Z,25.76
2022-09-15T10:22:31.645Z,26.76
2022-09-15T10:25:35.679Z,26.78
2022-09-15T10:28:21.876Z,25.72
2022-09-15T10:31:08.328Z,24.86
2022-09-15T10:33:45.104Z,23.92
2022-09-15T10:36:23.821Z,23.06
2022-09-15T10:39:08.144Z,22.36
2022-09-15T10:41:47.130Z,21.72
2022-09-15T10:44:35.520Z,21.14
2022-09-15T10:47:23.152Z,20.56
2022-09-15T10:50:13.030Z,20.20
2022-09-15T10:53:07.898Z,20.00
2022-09-15T10:55:57.717Z,19.74
2022-09-15T10:58:48.911Z,19.50
2022-09-15T11:01:41.251Z,19.30
2022-09-15T11:04:32.903Z,19.20
2022-09-15T11:07:14.278Z,19.20
2022-09-15T11:09:51.801Z,19.54
2022-09-15T11:12:43.636Z,20.08
2022-09-15T11:15:34.646Z,21.10
2022-09-15T11:18:27.866Z,22.24
2022-09-15T11:21:18.368Z,23.14
2022-09-15T11:23:58.752Z,23.80
2022-09-15T11:26:38.136Z,24.00
2022-09-15T11:29:19.529Z,24.04
2022-09-15T11:31:56.969Z,24.10
2022-09-15T11:34:36.422Z,23.80
2022-09-15T11:37:15.715Z,23.50
2022-09-15T11:39:56.014Z,23.20
2022-09-15T11:42:33.974Z,22.90
2022-09-15T11:45:15.164Z,22.62
2022-09-15T11:47:51.704Z,22.50
2022-09-15T11:50:30.138Z,22.40
2022-09-15T11:53:10.408Z,22.50
2022-09-15T11:55:44.819Z,22.70
2022-09-15T11:58:27.331Z,22.90
2022-09-15T12:01:10.356Z,22.80
2022-09-15T12:03:50.299Z,22.60
2022-09-15T12:06:28.211Z,22.90
2022-09-15T12:09:03.362Z,23.00
2022-09-15T12:11:42.340Z,23.28
2022-09-15T12:14:20.886Z,24.20
2022-09-15T12:16:53.900Z,24.90
2022-09-15T12:19:50.101Z,24.98
2022-09-15T12:22:30.178Z,24.90
2022-09-15T12:25:07.320Z,24.50
2022-09-15T12:27:40.249Z,24.00
2022-09-15T12:30:41.271Z,23.46
2022-09-15T12:33:55.027Z,22.76
2022-09-15T12:36:47.014Z,22.20
2022-09-15T12:39:38.804Z,21.80
2022-09-15T12:42:22.716Z,21.58
2022-09-15T12:44:59.903Z,21.30
2022-09-15T12:47:37.284Z,21.00
2022-09-15T12:50:26.891Z,20.80
2022-09-15T12:53:03.494Z,20.60
2022-09-15T12:55:39.021Z,20.50
2022-09-15T12:58:18.835Z,20.40
2022-09-15T13:01:17.225Z,20.30
2022-09-15T13:04:29.232Z,20.20
2022-09-15T13:07:35.514Z,20.20
2022-09-15T13:10:43.414Z,20.00
2022-09-15T13:13:23.851Z,19.90
2022-09-15T13:15:58.603Z,19.90
2022-09-15T13:18:33.620Z,19.90
2022-09-15T13:21:14.485Z,19.90
2022-09-15T13:23:53.244Z,19.90
2022-09-15T13:26:30.610Z,20.06
2022-09-15T13:29:03.784Z,20.36
2022-09-15T13:31:51.200Z,20.92
2022-09-15T13:35:04.523Z,21.40
2022-09-15T13:38:54.857Z,22.16
2022-09-15T13:42:10.535Z,23.00
2022-09-15T13:45:09.422Z,23.10
2022-09-15T13:48:10.987Z,23.00
2022-09-15T13:50:49.087Z,22.90
2022-09-15T13:53:36.590Z,22.72
2022-09-15T13:56:12.968Z,22.34
2022-09-15T13:58:58.083Z,21.88
2022-09-15T14:01:34.827Z,21.26
2022-09-15T14:04:11.512Z,20.78
2022-09-15T14:06:48.090Z,20.42
2022-09-15T14:09:27.258Z,20.10
2022-09-15T14:12:09.031Z,19.90
2022-09-15T14:14:45.839Z,19.70
2022-09-15T14:17:25.942Z,19.50
2022-09-15T14:20:01.150Z,19.30
2022-09-15T14:22:36.526Z,19.20
2022-09-15T14:25:18.899Z,19.00
2022-09-15T14:27:54.102Z,18.90
2022-09-15T14:30:30.769Z,18.80
2022-09-15T14:33:05.265Z,18.70
2022-09-15T14:35:40.810Z,18.60
2022-09-15T14:38:25.535Z,18.62
2022-09-15T14:41:01.947Z,18.80
2022-09-15T14:43:39.458Z,18.98
2022-09-15T14:46:21.202Z,19.10
2022-09-15T14:48:53.804Z,19.20
2022-09-15T14:51:33.157Z,19.38
2022-09-15T14:54:07.146Z,19.50
2022-09-15T14:56:44.310Z,19.68
2022-09-15T14:59:24.486Z,19.82
2022-09-15T15:02:09.106Z,20.08
2022-09-15T15:04:45.622Z,20.30
2022-09-15T15:07:24.252Z,20.40
2022-09-15T15:10:00.295Z,20.50
2022-09-15T15:12:36.296Z,20.52
2022-09-15T15:15:14.035Z,20.50
2022-09-15T15:17:49.956Z,20.32
2022-09-15T15:20:27.192Z,20.20
2022-09-15T15:23:19.026Z,20.18
2022-09-15T15:25:52.300Z,20.10
2022-09-15T15:28:37.626Z,20.00
2022-09-15T15:31:19.774Z,20.00
2022-09-15T15:33:59.534Z,20.10
2022-09-15T15:36:35.503Z,20.10
2022-09-15T15:39:21.182Z,20.10
2022-09-15T15:42:05.302Z,20.00
2022-09-15T15:44:38.217Z,19.90
2022-09-15T15:47:29.972Z,19.70
2022-09-15T15:50:14.204Z,19.60
2022-09-15T15:52:47.751Z,19.40
2022-09-15T15:55:22.646Z,19.20
2022-09-15T15:57:57.168Z,19.00
2022-09-15T16:00:34.165Z,18.80
2022-09-15T16:03:08.312Z,18.68
2022-09-15T16:05:43.836Z,18.50
2022-09-15T16:08:25.580Z,18.40
2022-09-15T16:10:59.437Z,18.40
2022-09-15T16:13:32.684Z,18.30
2022-09-15T16:16:15.503Z,18.30
2022-09-15T16:18:49.102Z,18.20
2022-09-15T16:21:28.650Z,18.16
2022-09-15T16:24:01.431Z,18.10
2022-09-15T16:26:35.753Z,18.00
2022-09-15T16:29:08.730Z,17.92
2022-09-15T16:31:43.144Z,17.88
2022-09-15T16:34:19.597Z,17.80
2022-09-15T16:36:52.400Z,17.70
2022-09-15T16:39:25.392Z,17.60
2022-09-15T16:44:35.775Z,17.50
2022-09-15T16:47:08.648Z,17.40
2022-09-15T16:49:42.552Z,17.40
2022-09-15T16:52:17.494Z,17.36
2022-09-15T16:54:50.472Z,17.30
2022-09-15T16:57:23.362Z,17.20
2022-09-15T16:59:56.154Z,17.20
2022-09-15T17:02:29.436Z,17.20
2022-09-15T17:05:02.326Z,17.10
2022-09-15T17:07:35.305Z,17.08
2022-09-15T17:10:10.194Z,17.00
2022-09-15T17:12:43.740Z,16.90
2022-09-15T17:15:24.746Z,16.90
2022-09-15T17:17:58.448Z,16.80
2022-09-15T17:20:34.745Z,16.70
2022-09-15T17:23:23.640Z,16.66
2022-09-15T17:25:59.291Z,16.60
2022-09-15T17:28:33.942Z,16.50
2022-09-15T17:31:13.465Z,16.42
2022-09-15T17:33:47.575Z,16.40
2022-09-15T17:36:20.782Z,16.30
2022-09-15T17:38:53.588Z,16.30
2022-09-15T17:41:26.736Z,16.20
2022-09-15T17:43:59.926Z,16.20
2022-09-15T17:46:32.958Z,16.10
2022-09-15T17:49:06.346Z,16.10
2022-09-15T17:51:39.158Z,16.00
2022-09-15T17:54:14.244Z,16.00
2022-09-15T17:56:47.029Z,16.00
2022-09-15T17:59:19.716Z,15.90
2022-09-15T18:01:52.886Z,15.90
2022-09-15T18:04:25.773Z,15.90
2022-09-15T18:06:59.269Z,15.90
2022-09-15T18:09:32.377Z,15.90
2022-09-15T18:12:05.920Z,15.90
2022-09-15T18:14:38.660Z,15.90
2022-09-15T18:17:12.506Z,15.90
2022-09-15T18:19:45.350Z,15.82
2022-09-15T18:22:18.812Z,15.80
2022-09-15T18:24:51.628Z,15.80
2022-09-15T18:27:24.602Z,15.80
2022-09-15T18:29:57.760Z,15.80
2022-09-15T18:32:30.574Z,15.70
2022-09-15T18:35:03.764Z,15.70
2022-09-15T18:37:37.120Z,15.70
2022-09-15T18:40:13.972Z,15.70
2022-09-15T18:42:47.402Z,15.70
2022-09-15T18:45:23.038Z,15.70
2022-09-15T18:47:57.001Z,15.66
2022-09-15T18:50:29.879Z,15.60
2022-09-15T18:53:02.658Z,15.60
2022-09-15T18:55:36.054Z,15.60
2022-09-15T18:58:08.892Z,15.60
2022-09-15T19:00:42.248Z,15.50
2022-09-15T19:03:15.529Z,15.50
2022-09-15T19:05:48.933Z,15.46
2022-09-15T19:08:22.422Z,15.40
2022-09-15T19:11:02.459Z,15.40
2022-09-15T19:13:35.982Z,15.30
2022-09-15T19:16:10.683Z,15.30
2022-09-15T19:18:45.228Z,15.28
2022-09-15T19:21:18.804Z,15.20
2022-09-15T19:23:51.714Z,15.20
2022-09-15T19:26:28.930Z,15.16
2022-09-15T19:29:01.786Z,15.10
2022-09-15T19:31:37.439Z,15.10
2022-09-15T19:34:12.879Z,15.00
2022-09-15T19:36:45.970Z,15.00
2022-09-15T19:39:19.282Z,15.00
2022-09-15T19:41:52.496Z,14.90
2022-09-15T19:44:25.954Z,14.90
2022-09-15T19:46:59.254Z,14.80
2022-09-15T19:49:32.237Z,14.80
2022-09-15T19:52:06.761Z,14.80
2022-09-15T19:54:39.750Z,14.70
2022-09-15T19:57:12.632Z,14.70
2022-09-15T19:59:46.090Z,14.60
2022-09-15T20:02:20.197Z,14.60
2022-09-15T20:07:50.083Z,14.50
2022-09-15T20:10:23.760Z,14.50
2022-09-15T20:12:57.740Z,14.40
2022-09-15T20:15:32.069Z,14.40
2022-09-15T20:18:07.266Z,14.40
2022-09-15T20:20:44.592Z,14.40
2022-09-15T20:23:18.331Z,14.30
2022-09-15T20:26:04.024Z,14.30
2022-09-15T20:28:39.368Z,14.30
2022-09-15T20:31:16.400Z,14.30
2022-09-15T20:33:52.320Z,14.30
2022-09-15T20:36:30.231Z,14.22
2022-09-15T20:39:05.851Z,14.20
2022-09-15T20:41:40.685Z,14.20
2022-09-15T20:44:14.592Z,14.20
2022-09-15T20:46:48.388Z,14.20
2022-09-15T20:49:22.447Z,14.30
2022-09-15T20:51:56.423Z,14.30
2022-09-15T20:54:30.040Z,14.30
2022-09-15T20:57:03.609Z,14.30
2022-09-15T20:59:37.891Z,14.30
2022-09-15T21:02:12.524Z,14.38
2022-09-15T21:04:46.136Z,14.40
2022-09-15T21:07:20.640Z,14.40
2022-09-15T21:09:54.345Z,14.40
2022-09-15T21:12:28.031Z,14.40
2022-09-15T21:15:01.815Z,14.40
2022-09-15T21:17:35.482Z,14.40
2022-09-15T21:20:11.117Z,14.40
2022-09-15T21:22:44.610Z,14.40
2022-09-15T21:25:18.498Z,14.30
2022-09-15T21:27:52.032Z,14.30
2022-09-15T21:30:25.476Z,14.30
2022-09-15T21:32:58.897Z,14.20
2022-09-15T21:35:32.863Z,14.20
2022-09-15T21:38:07.006Z,14.10
2022-09-15T21:40:46.418Z,14.10
2022-09-15T21:43:20.391Z,14.10
2022-09-15T21:45:57.948Z,14.00
2022-09-15T21:48:32.768Z,14.00
2022-09-15T21:51:07.867Z,13.94
2022-09-15T21:53:42.519Z,13.90
2022-09-15T21:56:16.638Z,13.90
2022-09-15T21:58:50.350Z,13.88
2022-09-15T22:01:26.817Z,13.80
2022-09-15T22:04:02.976Z,13.80
2022-09-15T22:06:40.639Z,13.70
2022-09-15T22:09:18.271Z,13.70
2022-09-15T22:11:52.289Z,13.70
2022-09-15T22:14:25.872Z,13.70
2022-09-15T22:16:59.428Z,13.62
2022-09-15T22:19:33.183Z,13.60
2022-09-15T22:22:06.842Z,13.60
2022-09-15T22:24:40.544Z,13.60
2022-09-15T22:27:14.860Z,13.60
2022-09-15T22:29:48.560Z,13.50
2022-09-15T22:32:22.165Z,13.50
2022-09-15T22:34:56.069Z,13.50
2022-09-15T22:37:30.908Z,13.50
2022-09-15T22:40:05.014Z,13.40
2022-09-15T22:42:38.878Z,13.48
2022-09-15T22:45:14.067Z,13.48
2022-09-15T22:47:47.464Z,13.50
2022-09-15T22:50:22.053Z,13.50
2022-09-15T22:52:56.404Z,13.50
2022-09-15T22:55:31.404Z,13.56
2022-09-15T22:58:04.959Z,13.60
2022-09-15T23:00:40.318Z,13.60
2022-09-15T23:03:13.836Z,13.60
2022-09-15T23:05:46.912Z,13.66
2022-09-15T23:08:19.591Z,13.70
2022-09-15T23:10:52.588Z,13.70
2022-09-15T23:13:25.265Z,13.74
2022-09-15T23:15:58.192Z,13.80
2022-09-15T23:18:31.646Z,13.80
2022-09-15T23:21:07.496Z,13.84
2022-09-15T23:23:43.425Z,13.90
2022-09-15T23:26:18.691Z,13.90
2022-09-15T23:28:51.786Z,13.90
2022-09-15T23:31:24.918Z,13.90
2022-09-15T23:33:57.961Z,13.90
2022-09-15T23:36:31.047Z,13.90
2022-09-15T23:39:03.716Z,13.90
2022-09-15T23:41:36.958Z,13.90
2022-09-15T23:44:10.001Z,13.90
2022-09-15T23:46:42.882Z,13.90
2022-09-15T23:49:18.709Z,13.88
2022-09-15T23:51:51.739Z,13.88
2022-09-15T23:54:24.410Z,13.86
2022-09-15T23:56:57.191Z,13.82
2022-09-15T23:59:29.986Z,13.84
